createdAt,value
2022-09-23T00:01:59.492Z,100709.42
2022-09-23T00:04:30.080Z,100699.61
2022-09-23T00:06:59.257Z,100699.09
2022-09-23T00:09:28.653Z,100698.34
2022-09-23T00:11:57.590Z,100698.45
2022-09-23T00:14:28.328Z,100701.74
2022-09-23T00:16:57.616Z,100702.41
2022-09-23T00:19:43.592Z,100699.59
2022-09-23T00:22:25.995Z,100699.77
2022-09-23T00:24:55.713Z,100698.19
2022-09-23T00:27:24.542Z,100701.31
2022-09-23T00:29:53.354Z,100696.60
2022-09-23T00:32:22.583Z,100697.00
2022-09-23T00:35:06.002Z,100701.39
2022-09-23T00:37:35.185Z,100695.11
2022-09-23T00:40:04.908Z,100692.36
2022-09-23T00:42:35.168Z,100689.80
2022-09-23T00:45:04.827Z,100690.52
2022-09-23T00:48:02.107Z,100691.33
2022-09-23T00:50:44.527Z,100698.08
2022-09-23T00:53:20.430Z,100697.48
2022-09-23T00:55:58.262Z,100700.13
2022-09-23T00:58:32.634Z,100699.07
2022-09-23T01:01:04.135Z,100692.65
2022-09-23T01:03:33.653Z,100690.19
2022-09-23T01:06:03.275Z,100695.52
2022-09-23T01:08:48.145Z,100690.73
2022-09-23T01:11:53.530Z,100688.81
2022-09-23T01:15:01.168Z,100686.58
2022-09-23T01:17:48.819Z,100687.82
2022-09-23T01:20:56.391Z,100688.37
2022-09-23T01:23:44.742Z,100691.54
2022-09-23T01:26:53.419Z,100689.83
2022-09-23T01:29:54.350Z,100691.04
2022-09-23T01:32:34.728Z,100686.98
2022-09-23T01:35:10.449Z,100689.59
2022-09-23T01:37:42.283Z,100688.17
2022-09-23T01:40:56.765Z,100689.86
2022-09-23T01:43:57.590Z,100687.30
2022-09-23T01:46:42.560Z,100685.11
2022-09-23T01:49:43.827Z,100682.54
2022-09-23T01:52:16.806Z,100681.09
2022-09-23T01:55:02.303Z,100682.14
2022-09-23T01:57:53.473Z,100678.14
2022-09-23T02:00:24.752Z,100680.53
2022-09-23T02:03:01.442Z,100682.19
2022-09-23T02:05:54.051Z,100679.27
2022-09-23T02:08:34.035Z,100684.05
2022-09-23T02:11:12.384Z,100687.02
2022-09-23T02:13:50.305Z,100686.16
2022-09-23T02:16:44.054Z,100687.76
2022-09-23T02:19:28.439Z,100689.81
2022-09-23T02:22:45.904Z,100689.92
2022-09-23T02:25:42.245Z,100689.73
2022-09-23T02:28:20.344Z,100687.48
2022-09-23T02:31:12.671Z,100684.48
2022-09-23T02:34:11.955Z,100685.06
2022-09-23T02:36:53.562Z,100685.54
2022-09-23T02:39:27.126Z,100685.13
2022-09-23T02:42:16.781Z,100688.41
2022-09-23T02:44:46.225Z,100684.31
2022-09-23T02:47:17.386Z,100687.11
2022-09-23T02:50:00.287Z,100689.09
2022-09-23T02:52:29.566Z,100685.13
2022-09-23T02:54:59.128Z,100684.85
2022-09-23T02:57:28.964Z,100681.80
2022-09-23T02:59:59.141Z,100680.77
2022-09-23T03:02:52.523Z,100679.08
2022-09-23T03:05:32.395Z,100674.26
2022-09-23T03:08:23.701Z,100676.73
2022-09-23T03:11:04.958Z,100675.54
2022-09-23T03:13:47.157Z,100668.55
2022-09-23T03:16:33.138Z,100671.17
2022-09-23T03:19:20.611Z,100666.48
2022-09-23T03:21:56.247Z,100663.77
2022-09-23T03:24:25.830Z,100663.95
2022-09-23T03:27:14.350Z,100661.58
2022-09-23T03:29:49.899Z,100663.65
2022-09-23T03:32:35.045Z,100665.04
2022-09-23T03:35:18.639Z,100661.58
2022-09-23T03:38:12.851Z,100662.02
2022-09-23T03:40:48.373Z,100661.03
2022-09-23T03:43:38.554Z,100662.27
2022-09-23T03:46:09.486Z,100665.95
2022-09-23T03:48:38.905Z,100665.77
2022-09-23T03:51:24.572Z,100666.13
2022-09-23T03:54:07.158Z,100663.13
2022-09-23T03:56:38.202Z,100659.91
2022-09-23T03:59:07.872Z,100658.23
2022-09-23T04:01:50.541Z,100659.56
2022-09-23T04:04:34.960Z,100657.00
2022-09-23T04:07:17.944Z,100659.30
2022-09-23T04:09:46.875Z,100658.54
2022-09-23T04:12:17.690Z,100657.17
2022-09-23T04:14:47.215Z,100651.70
2022-09-23T04:17:17.104Z,100648.83
2022-09-23T04:19:46.041Z,100645.55
2022-09-23T04:22:15.150Z,100645.92
2022-09-23T04:24:44.105Z,100649.73
2022-09-23T04:27:13.156Z,100650.71
2022-09-23T04:29:42.580Z,100655.10
2022-09-23T04:32:12.510Z,100654.82
2022-09-23T04:34:41.516Z,100654.82
2022-09-23T04:37:10.706Z,100654.52
2022-09-23T04:39:53.423Z,100652.33
2022-09-23T04:42:23.218Z,100649.77
2022-09-23T04:44:52.506Z,100647.39
2022-09-23T04:47:21.551Z,100646.09
2022-09-23T04:49:50.636Z,100644.33
2022-09-23T04:52:20.035Z,100644.80
2022-09-23T04:55:02.543Z,100643.64
2022-09-23T04:57:31.492Z,100645.75
2022-09-23T05:00:01.568Z,100642.30
2022-09-23T05:02:32.359Z,100643.18
2022-09-23T05:05:02.106Z,100648.25
2022-09-23T05:07:31.397Z,100645.01
2022-09-23T05:10:15.850Z,100646.37
2022-09-23T05:12:46.115Z,100646.80
2022-09-23T05:15:16.796Z,100647.09
2022-09-23T05:17:45.374Z,100652.01
2022-09-23T05:20:14.625Z,100649.11
2022-09-23T05:22:43.447Z,100645.60
2022-09-23T05:25:25.930Z,100643.84
2022-09-23T05:27:55.293Z,100645.08
2022-09-23T05:30:24.329Z,100647.90
2022-09-23T05:33:06.655Z,100652.95
2022-09-23T05:35:49.193Z,100651.11
2022-09-23T05:38:18.086Z,100651.14
2022-09-23T05:40:46.864Z,100651.16
2022-09-23T05:43:15.506Z,100659.30
2022-09-23T05:45:44.858Z,100652.30
2022-09-23T05:48:13.827Z,100649.98
2022-09-23T05:50:53.206Z,100648.14
2022-09-23T05:53:22.163Z,100644.83
2022-09-23T05:56:08.521Z,100647.71
2022-09-23T05:58:41.081Z,100651.77
2022-09-23T06:01:25.298Z,100651.79
2022-09-23T06:03:58.746Z,100652.55
2022-09-23T06:06:38.541Z,100655.98
2022-09-23T06:09:11.775Z,100657.86
2022-09-23T06:11:41.504Z,100654.11
2022-09-23T06:14:14.371Z,100658.77
2022-09-23T06:16:45.007Z,100663.32
2022-09-23T06:19:15.031Z,100662.20
2022-09-23T06:21:57.566Z,100660.26
2022-09-23T06:24:31.129Z,100659.09
2022-09-23T06:27:01.732Z,100663.08
2022-09-23T06:29:32.168Z,100659.66
2022-09-23T06:32:01.850Z,100661.88
2022-09-23T06:34:51.487Z,100662.60
2022-09-23T06:37:21.124Z,100660.56
2022-09-23T06:39:50.501Z,100664.58
2022-09-23T06:42:19.221Z,100662.48
2022-09-23T06:44:48.145Z,100659.46
2022-09-23T06:47:16.947Z,100659.48
2022-09-23T06:49:45.408Z,100656.91
2022-09-23T06:52:14.039Z,100659.21
2022-09-23T06:54:57.139Z,100659.06
2022-09-23T06:57:40.145Z,100659.88
2022-09-23T07:00:09.921Z,100658.92
2022-09-23T07:02:52.901Z,100657.91
2022-09-23T07:05:22.803Z,100663.83
2022-09-23T07:07:51.452Z,100660.91
2022-09-23T07:10:20.105Z,100663.38
2022-09-23T07:12:48.971Z,100664.38
2022-09-23T07:15:32.379Z,100664.08
2022-09-23T07:18:01.347Z,100666.71
2022-09-23T07:20:32.047Z,100665.95
2022-09-23T07:23:02.986Z,100668.95
2022-09-23T07:25:34.406Z,100667.27
2022-09-23T07:28:03.082Z,100667.52
2022-09-23T07:30:31.875Z,100668.77
2022-09-23T07:33:00.884Z,100662.95
2022-09-23T07:35:30.169Z,100660.34
2022-09-23T07:38:13.030Z,100660.36
2022-09-23T07:40:42.369Z,100662.71
2022-09-23T07:43:11.265Z,100657.90
2022-09-23T07:45:44.045Z,100660.02
2022-09-23T07:48:12.767Z,100661.38
2022-09-23T07:50:41.505Z,100660.26
2022-09-23T07:53:10.398Z,100656.58
2022-09-23T07:55:57.127Z,100660.64
2022-09-23T07:58:26.747Z,100658.61
2022-09-23T08:00:55.496Z,100657.05
2022-09-23T08:03:39.151Z,100656.68
2022-09-23T08:06:10.997Z,100651.73
2022-09-23T08:08:43.836Z,100648.46
2022-09-23T08:11:14.422Z,100647.88
2022-09-23T08:13:43.125Z,100647.95
2022-09-23T08:16:11.970Z,100648.48
2022-09-23T08:18:45.291Z,100648.16
2022-09-23T08:21:20.359Z,100647.32
2022-09-23T08:24:03.105Z,100648.10
2022-09-23T08:26:46.766Z,100646.48
2022-09-23T08:29:18.219Z,100642.80
2022-09-23T08:32:00.734Z,100637.55
2022-09-23T08:34:29.920Z,100635.43
2022-09-23T08:36:58.562Z,100632.16
2022-09-23T08:39:27.216Z,100630.45
2022-09-23T08:42:17.906Z,100623.88
2022-09-23T08:48:12.963Z,100622.50
2022-09-23T08:50:49.142Z,100618.73
2022-09-23T08:53:37.428Z,100619.44
2022-09-23T08:56:19.006Z,100619.89
2022-09-23T08:59:00.693Z,100619.41
2022-09-23T09:01:45.320Z,100616.91
2022-09-23T09:04:36.146Z,100613.54
2022-09-23T09:07:34.710Z,100611.08
2022-09-23T09:10:07.738Z,100608.27
2022-09-23T09:13:03.353Z,100603.96
2022-09-23T09:15:36.138Z,100603.86
2022-09-23T09:18:19.939Z,100606.43
2022-09-23T09:21:01.172Z,100606.11
2022-09-23T09:23:54.606Z,100609.67
2022-09-23T09:26:27.324Z,100605.42
2022-09-23T09:29:36.190Z,100602.84
2022-09-23T09:32:16.894Z,100602.73
2022-09-23T09:34:58.468Z,100607.27
2022-09-23T09:37:53.582Z,100600.40
2022-09-23T09:40:22.848Z,100596.23
2022-09-23T09:42:51.599Z,100598.61
2022-09-23T09:45:41.659Z,100599.20
2022-09-23T09:48:24.285Z,100597.42
2022-09-23T09:50:56.239Z,100592.80
2022-09-23T09:53:28.277Z,100587.92
2022-09-23T09:56:06.218Z,100585.54
2022-09-23T09:59:08.835Z,100586.65
2022-09-23T10:01:37.838Z,100582.02
2022-09-23T10:04:34.159Z,100581.16
2022-09-23T10:07:14.596Z,100575.17
2022-09-23T10:09:51.280Z,100569.83
2022-09-23T10:12:22.273Z,100570.47
2022-09-23T10:15:05.565Z,100561.58
2022-09-23T10:17:35.874Z,100561.65
2022-09-23T10:20:09.561Z,100559.61
2022-09-23T10:22:52.046Z,100561.45
2022-09-23T10:25:24.826Z,100553.40
2022-09-23T10:28:38.404Z,100553.20
2022-09-23T10:31:27.371Z,100557.41
2022-09-23T10:34:00.983Z,100554.94
2022-09-23T10:36:32.729Z,100559.46
2022-09-23T10:39:27.123Z,100559.67
2022-09-23T10:42:40.847Z,100559.00
2022-09-23T10:45:52.952Z,100551.97
2022-09-23T10:48:41.022Z,100551.90
2022-09-23T10:51:39.868Z,100547.63
2022-09-23T10:54:48.341Z,100551.67
2022-09-23T10:57:41.424Z,100553.57
2022-09-23T11:00:33.203Z,100555.70
2022-09-23T11:03:07.370Z,100556.85
2022-09-23T11:05:44.357Z,100549.83
2022-09-23T11:08:38.379Z,100547.30
2022-09-23T11:11:34.354Z,100545.23
2022-09-23T11:14:41.757Z,100546.09
2022-09-23T11:17:15.213Z,100541.11
2022-09-23T11:20:10.225Z,100542.69
2022-09-23T11:22:57.341Z,100541.15
2022-09-23T11:26:05.990Z,100535.74
2022-09-23T11:29:06.633Z,100530.49
2022-09-23T11:31:50.776Z,100533.69
2022-09-23T11:34:31.527Z,100531.65
2022-09-23T11:37:25.663Z,100525.50
2022-09-23T11:40:05.944Z,100522.60
2022-09-23T11:42:58.931Z,100519.62
2022-09-23T11:45:34.541Z,100516.01
2022-09-23T11:48:11.332Z,100514.46
2022-09-23T11:51:03.003Z,100514.17
2022-09-23T11:53:43.525Z,100510.84
2022-09-23T11:56:38.432Z,100513.17
2022-09-23T11:59:41.172Z,100505.85
2022-09-23T12:02:30.772Z,100505.66
2022-09-23T12:05:20.941Z,100504.27
2022-09-23T12:07:57.778Z,100504.08
2022-09-23T12:10:42.118Z,100502.61
2022-09-23T12:13:32.674Z,100496.58
2022-09-23T12:16:08.666Z,100496.02
2022-09-23T12:18:49.461Z,100493.71
2022-09-23T12:21:48.683Z,100494.77
2022-09-23T12:24:46.970Z,100493.55
2022-09-23T12:27:45.882Z,100489.38
2022-09-23T12:30:28.260Z,100484.85
2022-09-23T12:33:32.690Z,100478.41
2022-09-23T12:36:15.244Z,100481.58
2022-09-23T12:39:13.391Z,100477.41
2022-09-23T12:41:47.690Z,100476.00
2022-09-23T12:44:30.023Z,100476.65
2022-09-23T12:47:21.564Z,100477.65
2022-09-23T12:49:51.974Z,100477.11
2022-09-23T12:52:20.881Z,100477.58
2022-09-23T12:54:51.816Z,100478.67
2022-09-23T12:57:39.385Z,100475.54
2022-09-23T13:00:13.223Z,100478.61
2022-09-23T13:03:11.926Z,100476.61
2022-09-23T13:06:20.661Z,100472.00
2022-09-23T13:08:50.465Z,100473.88
2022-09-23T13:11:25.730Z,100465.80
2022-09-23T13:14:00.829Z,100465.36
2022-09-23T13:16:33.874Z,100464.63
2022-09-23T13:19:34.204Z,100461.41
2022-09-23T13:22:09.348Z,100455.64
2022-09-23T13:24:44.817Z,100451.95
2022-09-23T13:27:24.076Z,100447.35
2022-09-23T13:30:14.610Z,100443.91
2022-09-23T13:32:53.588Z,100442.46
2022-09-23T13:39:53.189Z,100433.62
2022-09-23T13:45:23.149Z,100426.41
2022-09-23T13:48:05.856Z,100425.88
2022-09-23T13:50:41.281Z,100423.80
2022-09-23T13:53:25.115Z,100423.91
2022-09-23T13:56:16.494Z,100417.52
2022-09-23T13:59:16.946Z,100417.45
2022-09-23T14:01:47.731Z,100413.06
2022-09-23T14:04:30.076Z,100414.52
2022-09-23T14:06:59.590Z,100412.98
2022-09-23T14:09:30.173Z,100407.13
2022-09-23T14:12:01.567Z,100397.60
2022-09-23T14:14:44.667Z,100395.32
2022-09-23T14:17:27.426Z,100395.39
2022-09-23T14:20:18.327Z,100394.17
2022-09-23T14:22:46.926Z,100393.76
2022-09-23T14:25:18.313Z,100393.27
2022-09-23T14:27:47.560Z,100394.80
2022-09-23T14:30:21.055Z,100394.61
2022-09-23T14:32:50.684Z,100390.84
2022-09-23T14:38:48.584Z,100383.30
2022-09-23T14:41:26.040Z,100383.90
2022-09-23T14:43:59.272Z,100386.81
2022-09-23T14:46:31.650Z,100385.46
2022-09-23T14:49:12.644Z,100382.97
2022-09-23T14:51:54.575Z,100382.02
2022-09-23T14:54:32.705Z,100381.87
2022-09-23T14:57:19.094Z,100381.27
2022-09-23T15:00:21.964Z,100376.59
2022-09-23T15:03:03.419Z,100378.70
2022-09-23T15:05:41.386Z,100374.55
2022-09-23T15:08:13.496Z,100373.13
2022-09-23T15:10:42.476Z,100366.70
2022-09-23T15:13:18.347Z,100364.77
2022-09-23T15:15:47.613Z,100366.44
2022-09-23T15:18:21.821Z,100365.52
2022-09-23T15:21:12.111Z,100365.14
2022-09-23T15:23:47.996Z,100365.79
2022-09-23T15:26:19.432Z,100365.31
2022-09-23T15:28:49.180Z,100365.17
2022-09-23T15:31:23.265Z,100362.96
2022-09-23T15:33:51.835Z,100360.70
2022-09-23T15:36:23.691Z,100367.30
2022-09-23T15:38:52.935Z,100360.63
2022-09-23T15:41:24.145Z,100361.47
2022-09-23T15:44:19.048Z,100363.92
2022-09-23T15:46:51.098Z,100360.60
2022-09-23T15:49:31.964Z,100359.84
2022-09-23T15:52:02.473Z,100353.61
2022-09-23T15:54:32.729Z,100349.36
2022-09-23T15:57:02.456Z,100348.03
2022-09-23T15:59:31.697Z,100350.39
2022-09-23T16:02:06.294Z,100348.81
2022-09-23T16:04:36.685Z,100354.70
2022-09-23T16:07:05.987Z,100353.72
2022-09-23T16:09:34.573Z,100353.14
2022-09-23T16:12:03.757Z,100353.27
2022-09-23T16:14:32.514Z,100351.67
2022-09-23T16:17:03.649Z,100355.92
2022-09-23T16:19:34.477Z,100356.45
2022-09-23T16:22:05.193Z,100358.83
2022-09-23T16:24:47.992Z,100356.41
2022-09-23T16:27:19.760Z,100357.93
2022-09-23T16:29:48.945Z,100357.70
2022-09-23T16:32:31.515Z,100358.58
2022-09-23T16:35:14.786Z,100362.32
2022-09-23T16:37:47.596Z,100362.03
2022-09-23T16:40:20.831Z,100360.86
2022-09-23T16:42:52.963Z,100362.64
2022-09-23T16:45:23.421Z,100363.63
2022-09-23T16:48:06.850Z,100362.63
2022-09-23T16:50:35.757Z,100359.53
2022-09-23T16:53:06.280Z,100356.77
2022-09-23T16:55:53.844Z,100359.05
2022-09-23T16:58:23.475Z,100361.23
2022-09-23T17:01:16.661Z,100363.36
2022-09-23T17:03:45.714Z,100365.06
2022-09-23T17:06:16.053Z,100370.59
2022-09-23T17:08:49.481Z,100368.94
2022-09-23T17:11:18.652Z,100369.52
2022-09-23T17:13:47.912Z,100367.30
2022-09-23T17:16:32.568Z,100361.78
2022-09-23T17:19:10.588Z,100361.57
2022-09-23T17:21:39.868Z,100361.46
2022-09-23T17:24:10.724Z,100363.91
2022-09-23T17:26:40.578Z,100364.30
2022-09-23T17:29:11.586Z,100362.56
2022-09-23T17:31:40.275Z,100360.90
2022-09-23T17:34:09.836Z,100359.42
2022-09-23T17:36:39.909Z,100357.08
2022-09-23T17:39:08.908Z,100354.43
2022-09-23T17:41:39.311Z,100357.32
2022-09-23T17:44:11.950Z,100362.91
2022-09-23T17:46:40.902Z,100361.77
2022-09-23T17:49:09.954Z,100359.30
2022-09-23T17:51:38.829Z,100357.98
2022-09-23T17:54:08.031Z,100361.58
2022-09-23T17:56:36.829Z,100361.80
2022-09-23T17:59:05.471Z,100361.73
2022-09-23T18:01:37.522Z,100358.55
2022-09-23T18:04:11.814Z,100359.75
2022-09-23T18:06:48.931Z,100357.25
2022-09-23T18:09:33.951Z,100359.36
2022-09-23T18:12:06.244Z,100360.91
2022-09-23T18:14:39.262Z,100357.89
2022-09-23T18:17:14.017Z,100359.40
2022-09-23T18:19:49.752Z,100363.73
2022-09-23T18:22:20.549Z,100364.34
2022-09-23T18:24:51.854Z,100367.92
2022-09-23T18:27:24.929Z,100368.58
2022-09-23T18:29:55.384Z,100364.56
2022-09-23T18:32:25.893Z,100364.75
2022-09-23T18:34:56.448Z,100363.20
2022-09-23T18:37:25.517Z,100364.30
2022-09-23T18:39:54.184Z,100359.44
2022-09-23T18:42:24.017Z,100361.14
2022-09-23T18:44:56.516Z,100357.95
2022-09-23T18:47:45.346Z,100355.58
2022-09-23T18:50:32.701Z,100356.17
2022-09-23T18:53:10.585Z,100354.95
2022-09-23T18:55:43.226Z,100357.21
2022-09-23T18:58:14.112Z,100358.69
2022-09-23T19:00:46.559Z,100355.87
2022-09-23T19:03:17.522Z,100359.70
2022-09-23T19:05:47.422Z,100356.67
2022-09-23T19:08:16.404Z,100355.73
2022-09-23T19:10:45.509Z,100353.66
2022-09-23T19:13:14.944Z,100356.02
2022-09-23T19:15:45.436Z,100357.42
2022-09-23T19:18:14.760Z,100356.94
2022-09-23T19:21:04.823Z,100359.03
2022-09-23T19:23:50.444Z,100358.54
2022-09-23T19:26:23.097Z,100355.23
2022-09-23T19:28:59.363Z,100358.02
2022-09-23T19:31:34.944Z,100360.76
2022-09-23T19:34:12.177Z,100363.02
2022-09-23T19:36:51.096Z,100361.03
2022-09-23T19:39:25.479Z,100360.88
2022-09-23T19:41:56.913Z,100365.68
2022-09-23T19:44:28.936Z,100365.05
2022-09-23T19:46:58.259Z,100368.12
2022-09-23T19:49:40.610Z,100365.22
2022-09-23T19:52:09.283Z,100365.07
2022-09-23T19:54:38.215Z,100358.98
2022-09-23T19:57:06.834Z,100354.79
2022-09-23T19:59:40.770Z,100354.11
2022-09-23T20:02:14.335Z,100352.47
2022-09-23T20:04:42.983Z,100349.38
2022-09-23T20:07:11.770Z,100349.61
2022-09-23T20:09:40.430Z,100352.59
2022-09-23T20:12:11.965Z,100350.10
2022-09-23T20:14:42.655Z,100349.02
2022-09-23T20:17:25.787Z,100347.55
2022-09-23T20:20:09.912Z,100343.80
2022-09-23T20:22:39.001Z,100344.55
2022-09-23T20:25:14.610Z,100345.80
2022-09-23T20:27:50.205Z,100344.23
2022-09-23T20:30:22.508Z,100345.47
2022-09-23T20:32:53.370Z,100341.98
2022-09-23T20:35:24.501Z,100342.65
2022-09-23T20:37:58.797Z,100344.73
2022-09-23T20:40:33.901Z,100339.17
2022-09-23T20:43:05.548Z,100342.39
2022-09-23T20:45:35.068Z,100337.06
2022-09-23T20:48:06.662Z,100337.11
2022-09-23T20:50:44.451Z,100340.89
2022-09-23T20:53:19.769Z,100341.15
2022-09-23T20:55:54.036Z,100343.50
2022-09-23T21:01:48.196Z,100343.84
2022-09-23T21:04:17.499Z,100342.88
2022-09-23T21:06:46.787Z,100339.84
2022-09-23T21:09:15.336Z,100335.78
2022-09-23T21:11:44.330Z,100333.45
2022-09-23T21:14:13.527Z,100334.62
2022-09-23T21:16:45.461Z,100341.71
2022-09-23T21:19:14.324Z,100341.98
2022-09-23T21:21:43.533Z,100342.10
2022-09-23T21:24:40.058Z,100346.23
2022-09-23T21:27:03.365Z,100342.39
2022-09-23T21:29:32.040Z,100339.20
2022-09-23T21:32:00.692Z,100337.55
2022-09-23T21:34:30.245Z,100335.70
2022-09-23T21:36:58.828Z,100337.14
2022-09-23T21:39:27.695Z,100338.63
2022-09-23T21:42:12.317Z,100341.33
2022-09-23T21:44:41.710Z,100335.89
2022-09-23T21:47:10.554Z,100331.99
2022-09-23T21:49:40.164Z,100327.85
2022-09-23T21:52:10.315Z,100330.84
2022-09-23T21:54:39.016Z,100331.73
2022-09-23T21:57:08.266Z,100333.83
2022-09-23T21:59:37.342Z,100327.92
2022-09-23T22:02:06.405Z,100325.02
2022-09-23T22:04:48.854Z,100326.12
2022-09-23T22:07:17.856Z,100326.74
2022-09-23T22:10:00.365Z,100328.75
2022-09-23T22:12:29.359Z,100332.88
2022-09-23T22:15:12.313Z,100335.71
2022-09-23T22:17:41.326Z,100333.31
2022-09-23T22:20:10.391Z,100328.58
2022-09-23T22:22:48.829Z,100328.15
2022-09-23T22:25:20.652Z,100328.93
2022-09-23T22:28:22.108Z,100329.34
2022-09-23T22:31:09.315Z,100327.80
2022-09-23T22:33:41.319Z,100334.63
2022-09-23T22:36:17.789Z,100329.30
2022-09-23T22:38:47.314Z,100331.02
2022-09-23T22:41:16.370Z,100330.60
2022-09-23T22:43:45.623Z,100335.74
2022-09-23T22:46:22.291Z,100329.73
2022-09-23T22:48:53.067Z,100325.58
2022-09-23T22:51:38.060Z,100324.61
2022-09-23T22:54:23.723Z,100322.77
2022-09-23T22:56:53.124Z,100320.20
2022-09-23T22:59:37.809Z,100322.43
2022-09-23T23:02:25.506Z,100324.05
2022-09-23T23:04:56.489Z,100323.39
2022-09-23T23:07:25.512Z,100321.07
2022-09-23T23:09:54.764Z,100319.89
2022-09-23T23:12:37.370Z,100320.65
2022-09-23T23:15:07.001Z,100315.68
2022-09-23T23:17:49.944Z,100317.45
2022-09-23T23:20:32.828Z,100314.77
2022-09-23T23:23:03.387Z,100314.34
2022-09-23T23:25:32.783Z,100312.30
2022-09-23T23:28:01.910Z,100311.46
2022-09-23T23:30:44.394Z,100308.73
2022-09-23T23:33:13.442Z,100307.29
2022-09-23T23:35:55.913Z,100309.90
2022-09-23T23:38:24.979Z,100309.06
2022-09-23T23:40:55.617Z,100307.17
2022-09-23T23:43:40.235Z,100306.52
2022-09-23T23:46:25.649Z,100304.40
2022-09-23T23:48:56.313Z,100305.52
2022-09-23T23:51:26.822Z,100305.43
2022-09-23T23:54:09.467Z,100307.66
2022-09-23T23:56:38.941Z,100307.33
2022-09-23T23:59:08.343Z,100305.71
